BBM weather

Battambang Airport
Battambang, Baat Dambang, Cambodia

Public forecast

Using degrees Celsius for public forecast. Weather courtesy of forecast.io.

METAR (pilot weather report)

Closest report is Siem Reap International Airport, 39.3 nm (72.7 km) ENE. Retrieved 2019/02/16 19:00 UTC (8 minutes ago):

VDSR 161900Z VRB03KT 9000 FEW017 23/21 Q1011

TAF (pilot weather forecast)

Closest forecast is Siem Reap International Airport, 39.3 nm (72.7 km) ENE. Retrieved 2019/02/16 18:00 UTC (1 hour ago):

TAF VDPP 161700Z 1618/1712 17006KT 9999 FEW017= TAF VDSR 161700Z 1618/1712 25006KT 9999 FEW017